LEJR/XRY METAR and TAF weather

Enter ICAO airport designator
Station Type Date Time Source
LEJR METAR 2020/04/05 06:30 UTC NOAA

LEJR 050630Z AUTO 12009KT 080V150 CAVOK 14/08 Q1016


Station Type Date Time Source
LEJR Decoded METAR 2020/04/05 06:30 UTC NOAA

Jerez De La Fronteraaeropuerto, Spain (LEJR) 36-45N 006-04W 28M
Apr 05, 2020 - 02:30 AM EDT / 2020.04.05 0630 UTC
Wind: from the ESE (120 degrees) at 10 MPH (9 KT) (direction variable):0
Visibility: greater than 7 mile(s):0
Temperature: 57 F (14 C)
Dew Point: 46 F (8 C)
Relative Humidity: 67%
Pressure (altimeter): 30.00 in. Hg (1016 hPa)
ob: LEJR 050630Z AUTO 12009KT 080V150 CAVOK 14/08 Q1016
cycle: 6

Station Type Date Time Source
LEJR TAF 2020/04/05 06:27 UTC NOAA

TAF LEJR 050500Z 0506/0606 14009KT CAVOK TX19/0514Z TN09/0606Z PROB30
TEMPO 0600/0606 4000 RA BR BKN010

Example: see airport list